sensor_id;sensor_type;location;lat;lon;timestamp;P1;durP1;ratioP1;P2;durP2;ratioP2
52888;SDS011;41413;52.770;6.892;2023-05-28T00:00:46;838.60;;;717.15;;
52888;SDS011;41413;52.770;6.892;2023-05-28T00:03:12;821.20;;;729.05;;
52888;SDS011;41413;52.770;6.892;2023-05-28T00:05:43;808.38;;;699.95;;
52888;SDS011;41413;52.770;6.892;2023-05-28T00:08:11;801.25;;;709.92;;
52888;SDS011;41413;52.770;6.892;2023-05-28T00:10:40;829.58;;;706.40;;
52888;SDS011;41413;52.770;6.892;2023-05-28T00:13:08;846.42;;;732.67;;
52888;SDS011;41413;52.770;6.892;2023-05-28T00:15:35;787.70;;;670.55;;
52888;SDS011;41413;52.770;6.892;2023-05-28T00:18:03;859.08;;;726.05;;
52888;SDS011;41413;52.770;6.892;2023-05-28T00:20:31;809.38;;;700.95;;
52888;SDS011;41413;52.770;6.892;2023-05-28T00:22:58;798.50;;;686.40;;
52888;SDS011;41413;52.770;6.892;2023-05-28T00:25:25;822.95;;;705.33;;
52888;SDS011;41413;52.770;6.892;2023-05-28T00:27:51;840.67;;;732.00;;
52888;SDS011;41413;52.770;6.892;2023-05-28T00:30:18;815.92;;;701.42;;
52888;SDS011;41413;52.770;6.892;2023-05-28T00:32:45;894.63;;;757.42;;
52888;SDS011;41413;52.770;6.892;2023-05-28T00:35:12;838.22;;;712.72;;
52888;SDS011;41413;52.770;6.892;2023-05-28T00:37:39;833.58;;;717.05;;
52888;SDS011;41413;52.770;6.892;2023-05-28T00:40:06;812.38;;;723.45;;
52888;SDS011;41413;52.770;6.892;2023-05-28T00:42:33;853.83;;;740.67;;
52888;SDS011;41413;52.770;6.892;2023-05-28T00:45:00;847.78;;;724.40;;
52888;SDS011;41413;52.770;6.892;2023-05-28T00:47:27;859.53;;;727.92;;
52888;SDS011;41413;52.770;6.892;2023-05-28T00:49:54;885.25;;;776.42;;
52888;SDS011;41413;52.770;6.892;2023-05-28T00:52:22;906.30;;;763.92;;
52888;SDS011;41413;52.770;6.892;2023-05-28T00:54:48;775.83;;;684.53;;
52888;SDS011;41413;52.770;6.892;2023-05-28T00:57:16;802.15;;;671.42;;
52888;SDS011;41413;52.770;6.892;2023-05-28T00:59:47;808.30;;;706.85;;
52888;SDS011;41413;52.770;6.892;2023-05-28T01:02:14;880.25;;;744.67;;
52888;SDS011;41413;52.770;6.892;2023-05-28T01:04:41;822.10;;;708.13;;
52888;SDS011;41413;52.770;6.892;2023-05-28T01:07:08;837.63;;;725.88;;
52888;SDS011;41413;52.770;6.892;2023-05-28T01:09:35;861.63;;;716.38;;
52888;SDS011;41413;52.770;6.892;2023-05-28T01:12:02;839.72;;;715.42;;
52888;SDS011;41413;52.770;6.892;2023-05-28T01:14:31;888.63;;;756.05;;
52888;SDS011;41413;52.770;6.892;2023-05-28T01:16:58;875.47;;;726.30;;
52888;SDS011;41413;52.770;6.892;2023-05-28T01:19:26;841.30;;;697.35;;
52888;SDS011;41413;52.770;6.892;2023-05-28T01:21:59;924.78;;;751.63;;
52888;SDS011;41413;52.770;6.892;2023-05-28T01:24:34;883.83;;;751.55;;
52888;SDS011;41413;52.770;6.892;2023-05-28T01:27:06;846.70;;;726.78;;
52888;SDS011;41413;52.770;6.892;2023-05-28T01:29:33;895.05;;;756.40;;
52888;SDS011;41413;52.770;6.892;2023-05-28T01:32:00;869.30;;;745.22;;
52888;SDS011;41413;52.770;6.892;2023-05-28T01:34:27;886.25;;;742.03;;
52888;SDS011;41413;52.770;6.892;2023-05-28T01:36:58;879.63;;;730.85;;
52888;SDS011;41413;52.770;6.892;2023-05-28T01:39:27;939.70;;;775.28;;
52888;SDS011;41413;52.770;6.892;2023-05-28T01:42:00;883.20;;;740.13;;
52888;SDS011;41413;52.770;6.892;2023-05-28T01:44:28;855.92;;;722.95;;
52888;SDS011;41413;52.770;6.892;2023-05-28T01:46:56;882.83;;;732.85;;
52888;SDS011;41413;52.770;6.892;2023-05-28T01:49:24;870.33;;;762.67;;
52888;SDS011;41413;52.770;6.892;2023-05-28T01:51:50;959.47;;;780.85;;
52888;SDS011;41413;52.770;6.892;2023-05-28T01:54:18;917.05;;;755.17;;
52888;SDS011;41413;52.770;6.892;2023-05-28T01:56:46;897.22;;;744.55;;
52888;SDS011;41413;52.770;6.892;2023-05-28T01:59:13;880.45;;;754.33;;
52888;SDS011;41413;52.770;6.892;2023-05-28T02:01:40;871.17;;;739.75;;
52888;SDS011;41413;52.770;6.892;2023-05-28T02:04:07;886.20;;;743.33;;
52888;SDS011;41413;52.770;6.892;2023-05-28T02:06:34;955.22;;;780.35;;
52888;SDS011;41413;52.770;6.892;2023-05-28T02:09:00;925.70;;;757.47;;
52888;SDS011;41413;52.770;6.892;2023-05-28T02:11:27;958.15;;;765.72;;
52888;SDS011;41413;52.770;6.892;2023-05-28T02:13:54;946.03;;;761.25;;
52888;SDS011;41413;52.770;6.892;2023-05-28T02:16:21;947.38;;;790.65;;
52888;SDS011;41413;52.770;6.892;2023-05-28T02:18:50;919.38;;;758.97;;
52888;SDS011;41413;52.770;6.892;2023-05-28T02:21:17;953.67;;;786.80;;
52888;SDS011;41413;52.770;6.892;2023-05-28T02:23:45;953.40;;;738.92;;
52888;SDS011;41413;52.770;6.892;2023-05-28T02:26:14;948.15;;;763.33;;
52888;SDS011;41413;52.770;6.892;2023-05-28T02:28:41;943.42;;;755.20;;
52888;SDS011;41413;52.770;6.892;2023-05-28T02:31:12;965.22;;;797.83;;
52888;SDS011;41413;52.770;6.892;2023-05-28T02:33:39;926.70;;;782.25;;
52888;SDS011;41413;52.770;6.892;2023-05-28T02:36:10;903.03;;;769.95;;
52888;SDS011;41413;52.770;6.892;2023-05-28T02:38:38;884.67;;;733.53;;
52888;SDS011;41413;52.770;6.892;2023-05-28T02:41:06;872.92;;;712.13;;
52888;SDS011;41413;52.770;6.892;2023-05-28T02:43:33;929.50;;;752.13;;
52888;SDS011;41413;52.770;6.892;2023-05-28T02:45:59;988.05;;;784.67;;
52888;SDS011;41413;52.770;6.892;2023-05-28T02:48:26;896.72;;;740.63;;
52888;SDS011;41413;52.770;6.892;2023-05-28T02:50:53;968.53;;;803.00;;
52888;SDS011;41413;52.770;6.892;2023-05-28T02:53:21;933.17;;;778.63;;
52888;SDS011;41413;52.770;6.892;2023-05-28T02:55:48;967.60;;;783.85;;
52888;SDS011;41413;52.770;6.892;2023-05-28T02:58:15;944.85;;;782.85;;
52888;SDS011;41413;52.770;6.892;2023-05-28T03:00:42;930.25;;;766.15;;
52888;SDS011;41413;52.770;6.892;2023-05-28T03:03:09;977.85;;;795.70;;
52888;SDS011;41413;52.770;6.892;2023-05-28T03:05:36;836.33;;;700.80;;
52888;SDS011;41413;52.770;6.892;2023-05-28T03:08:03;919.70;;;779.22;;
52888;SDS011;41413;52.770;6.892;2023-05-28T03:10:29;826.63;;;687.00;;
52888;SDS011;41413;52.770;6.892;2023-05-28T03:12:56;929.45;;;754.42;;
52888;SDS011;41413;52.770;6.892;2023-05-28T03:15:23;994.88;;;787.78;;
52888;SDS011;41413;52.770;6.892;2023-05-28T03:17:53;851.50;;;711.45;;
52888;SDS011;41413;52.770;6.892;2023-05-28T03:20:20;997.70;;;785.55;;
52888;SDS011;41413;52.770;6.892;2023-05-28T03:22:48;898.78;;;740.10;;
52888;SDS011;41413;52.770;6.892;2023-05-28T03:25:15;925.85;;;762.47;;
52888;SDS011;41413;52.770;6.892;2023-05-28T03:27:42;868.47;;;722.15;;
52888;SDS011;41413;52.770;6.892;2023-05-28T03:30:08;897.88;;;755.22;;
52888;SDS011;41413;52.770;6.892;2023-05-28T03:32:36;917.83;;;762.47;;
52888;SDS011;41413;52.770;6.892;2023-05-28T03:35:03;917.90;;;746.78;;
52888;SDS011;41413;52.770;6.892;2023-05-28T03:37:31;1010.83;;;798.50;;
52888;SDS011;41413;52.770;6.892;2023-05-28T03:39:57;942.92;;;769.58;;
52888;SDS011;41413;52.770;6.892;2023-05-28T03:42:24;1021.83;;;797.35;;
52888;SDS011;41413;52.770;6.892;2023-05-28T03:44:51;960.20;;;798.67;;
52888;SDS011;41413;52.770;6.892;2023-05-28T03:47:18;899.30;;;739.25;;
52888;SDS011;41413;52.770;6.892;2023-05-28T03:49:44;939.53;;;770.67;;
52888;SDS011;41413;52.770;6.892;2023-05-28T03:52:11;935.80;;;757.53;;
52888;SDS011;41413;52.770;6.892;2023-05-28T03:54:38;919.92;;;761.00;;
52888;SDS011;41413;52.770;6.892;2023-05-28T03:57:05;937.47;;;756.75;;
52888;SDS011;41413;52.770;6.892;2023-05-28T03:59:32;929.95;;;743.90;;
52888;SDS011;41413;52.770;6.892;2023-05-28T04:01:58;904.72;;;766.28;;
52888;SDS011;41413;52.770;6.892;2023-05-28T04:04:25;901.90;;;755.42;;
52888;SDS011;41413;52.770;6.892;2023-05-28T04:06:52;964.05;;;784.95;;
52888;SDS011;41413;52.770;6.892;2023-05-28T04:09:19;922.30;;;740.45;;
52888;SDS011;41413;52.770;6.892;2023-05-28T04:11:46;1012.13;;;783.30;;
52888;SDS011;41413;52.770;6.892;2023-05-28T04:14:13;986.85;;;790.03;;
52888;SDS011;41413;52.770;6.892;2023-05-28T04:16:40;989.40;;;796.70;;
52888;SDS011;41413;52.770;6.892;2023-05-28T04:19:07;953.20;;;757.03;;
52888;SDS011;41413;52.770;6.892;2023-05-28T04:21:34;1037.85;;;790.13;;
52888;SDS011;41413;52.770;6.892;2023-05-28T04:24:03;928.85;;;774.63;;
52888;SDS011;41413;52.770;6.892;2023-05-28T04:26:30;924.20;;;739.65;;
52888;SDS011;41413;52.770;6.892;2023-05-28T04:28:56;988.55;;;788.72;;
52888;SDS011;41413;52.770;6.892;2023-05-28T04:31:25;954.95;;;771.17;;
52888;SDS011;41413;52.770;6.892;2023-05-28T04:33:53;941.67;;;749.45;;
52888;SDS011;41413;52.770;6.892;2023-05-28T04:36:20;907.45;;;751.75;;
52888;SDS011;41413;52.770;6.892;2023-05-28T04:38:47;926.17;;;742.25;;
52888;SDS011;41413;52.770;6.892;2023-05-28T04:41:14;955.50;;;776.88;;
52888;SDS011;41413;52.770;6.892;2023-05-28T04:43:41;900.35;;;750.92;;
52888;SDS011;41413;52.770;6.892;2023-05-28T04:46:07;913.30;;;752.60;;
52888;SDS011;41413;52.770;6.892;2023-05-28T04:48:38;994.08;;;771.92;;
52888;SDS011;41413;52.770;6.892;2023-05-28T04:51:04;912.67;;;772.85;;
52888;SDS011;41413;52.770;6.892;2023-05-28T04:53:32;876.15;;;767.67;;
52888;SDS011;41413;52.770;6.892;2023-05-28T04:56:00;983.15;;;787.00;;
52888;SDS011;41413;52.770;6.892;2023-05-28T04:58:27;978.55;;;808.97;;
52888;SDS011;41413;52.770;6.892;2023-05-28T05:00:53;983.88;;;796.55;;
52888;SDS011;41413;52.770;6.892;2023-05-28T05:03:22;947.63;;;764.05;;
52888;SDS011;41413;52.770;6.892;2023-05-28T05:05:48;905.95;;;738.63;;
52888;SDS011;41413;52.770;6.892;2023-05-28T05:08:15;971.88;;;774.58;;
52888;SDS011;41413;52.770;6.892;2023-05-28T05:10:42;954.95;;;806.30;;
52888;SDS011;41413;52.770;6.892;2023-05-28T05:13:09;914.70;;;747.42;;
52888;SDS011;41413;52.770;6.892;2023-05-28T05:15:36;960.67;;;774.85;;
52888;SDS011;41413;52.770;6.892;2023-05-28T05:18:03;1057.15;;;820.20;;
52888;SDS011;41413;52.770;6.892;2023-05-28T05:20:29;884.78;;;744.30;;
52888;SDS011;41413;52.770;6.892;2023-05-28T05:22:56;1005.80;;;810.80;;
52888;SDS011;41413;52.770;6.892;2023-05-28T05:25:23;1021.33;;;807.42;;
52888;SDS011;41413;52.770;6.892;2023-05-28T05:27:51;905.20;;;745.33;;
52888;SDS011;41413;52.770;6.892;2023-05-28T05:30:18;939.65;;;761.45;;
52888;SDS011;41413;52.770;6.892;2023-05-28T05:32:44;925.97;;;766.42;;
52888;SDS011;41413;52.770;6.892;2023-05-28T05:35:11;929.95;;;780.90;;
52888;SDS011;41413;52.770;6.892;2023-05-28T05:37:38;927.42;;;789.67;;
52888;SDS011;41413;52.770;6.892;2023-05-28T05:40:05;997.58;;;799.83;;
52888;SDS011;41413;52.770;6.892;2023-05-28T05:42:32;953.50;;;776.47;;
52888;SDS011;41413;52.770;6.892;2023-05-28T05:44:59;950.17;;;765.90;;
52888;SDS011;41413;52.770;6.892;2023-05-28T05:47:25;861.58;;;730.13;;
52888;SDS011;41413;52.770;6.892;2023-05-28T05:49:52;881.63;;;730.08;;
52888;SDS011;41413;52.770;6.892;2023-05-28T05:52:19;944.42;;;775.72;;
52888;SDS011;41413;52.770;6.892;2023-05-28T05:54:45;918.47;;;756.92;;
52888;SDS011;41413;52.770;6.892;2023-05-28T05:57:12;959.45;;;766.58;;
52888;SDS011;41413;52.770;6.892;2023-05-28T05:59:40;1018.40;;;830.33;;
52888;SDS011;41413;52.770;6.892;2023-05-28T06:02:06;956.47;;;798.05;;
52888;SDS011;41413;52.770;6.892;2023-05-28T06:04:34;863.90;;;744.90;;
52888;SDS011;41413;52.770;6.892;2023-05-28T06:07:01;892.85;;;721.13;;
52888;SDS011;41413;52.770;6.892;2023-05-28T06:09:33;906.60;;;760.72;;
52888;SDS011;41413;52.770;6.892;2023-05-28T06:12:00;846.80;;;709.60;;
52888;SDS011;41413;52.770;6.892;2023-05-28T06:14:28;886.88;;;743.08;;
52888;SDS011;41413;52.770;6.892;2023-05-28T06:16:54;832.80;;;714.72;;
52888;SDS011;41413;52.770;6.892;2023-05-28T06:19:21;865.03;;;750.47;;
52888;SDS011;41413;52.770;6.892;2023-05-28T06:21:49;884.58;;;740.35;;
52888;SDS011;41413;52.770;6.892;2023-05-28T06:24:17;830.42;;;707.58;;
52888;SDS011;41413;52.770;6.892;2023-05-28T06:26:44;841.13;;;734.70;;
52888;SDS011;41413;52.770;6.892;2023-05-28T06:29:11;817.53;;;723.47;;
52888;SDS011;41413;52.770;6.892;2023-05-28T06:31:38;884.95;;;753.45;;
52888;SDS011;41413;52.770;6.892;2023-05-28T06:34:06;760.72;;;677.55;;
52888;SDS011;41413;52.770;6.892;2023-05-28T06:36:33;765.20;;;672.63;;
52888;SDS011;41413;52.770;6.892;2023-05-28T06:39:03;840.08;;;747.28;;
52888;SDS011;41413;52.770;6.892;2023-05-28T06:41:30;830.63;;;729.88;;
52888;SDS011;41413;52.770;6.892;2023-05-28T06:43:57;814.95;;;725.95;;
52888;SDS011;41413;52.770;6.892;2023-05-28T06:46:24;758.85;;;677.42;;
52888;SDS011;41413;52.770;6.892;2023-05-28T06:48:51;725.03;;;646.47;;
52888;SDS011;41413;52.770;6.892;2023-05-28T06:51:18;775.58;;;692.08;;
52888;SDS011;41413;52.770;6.892;2023-05-28T06:53:44;797.45;;;710.55;;
52888;SDS011;41413;52.770;6.892;2023-05-28T06:56:11;762.35;;;680.92;;
52888;SDS011;41413;52.770;6.892;2023-05-28T06:58:38;665.88;;;595.25;;
52888;SDS011;41413;52.770;6.892;2023-05-28T07:01:05;579.45;;;520.60;;
52888;SDS011;41413;52.770;6.892;2023-05-28T07:03:32;756.88;;;676.20;;
52888;SDS011;41413;52.770;6.892;2023-05-28T07:05:58;595.80;;;534.28;;
52888;SDS011;41413;52.770;6.892;2023-05-28T07:08:26;643.35;;;575.17;;
52888;SDS011;41413;52.770;6.892;2023-05-28T07:10:53;651.72;;;582.60;;
52888;SDS011;41413;52.770;6.892;2023-05-28T07:13:19;677.67;;;608.80;;
52888;SDS011;41413;52.770;6.892;2023-05-28T07:15:47;703.45;;;632.40;;
52888;SDS011;41413;52.770;6.892;2023-05-28T07:18:14;714.58;;;638.80;;
52888;SDS011;41413;52.770;6.892;2023-05-28T07:20:41;670.25;;;598.53;;
52888;SDS011;41413;52.770;6.892;2023-05-28T07:23:07;726.75;;;650.08;;
52888;SDS011;41413;52.770;6.892;2023-05-28T07:25:37;790.80;;;705.55;;
52888;SDS011;41413;52.770;6.892;2023-05-28T07:28:04;742.80;;;665.95;;
52888;SDS011;41413;52.770;6.892;2023-05-28T07:30:31;618.03;;;554.78;;
52888;SDS011;41413;52.770;6.892;2023-05-28T07:32:58;732.15;;;654.58;;
52888;SDS011;41413;52.770;6.892;2023-05-28T07:35:25;702.17;;;629.95;;
52888;SDS011;41413;52.770;6.892;2023-05-28T07:37:55;706.05;;;634.55;;
52888;SDS011;41413;52.770;6.892;2023-05-28T07:40:22;760.38;;;679.65;;
52888;SDS011;41413;52.770;6.892;2023-05-28T07:42:49;704.17;;;632.40;;
52888;SDS011;41413;52.770;6.892;2023-05-28T07:45:16;700.85;;;628.58;;
52888;SDS011;41413;52.770;6.892;2023-05-28T07:47:43;660.58;;;593.88;;
52888;SDS011;41413;52.770;6.892;2023-05-28T07:50:10;738.47;;;660.97;;
52888;SDS011;41413;52.770;6.892;2023-05-28T07:52:37;711.95;;;638.08;;
52888;SDS011;41413;52.770;6.892;2023-05-28T07:55:04;715.10;;;639.55;;
52888;SDS011;41413;52.770;6.892;2023-05-28T07:57:31;648.97;;;583.40;;
52888;SDS011;41413;52.770;6.892;2023-05-28T07:59:58;635.17;;;569.65;;
52888;SDS011;41413;52.770;6.892;2023-05-28T08:02:26;635.22;;;571.67;;
52888;SDS011;41413;52.770;6.892;2023-05-28T08:04:53;740.67;;;666.33;;
52888;SDS011;41413;52.770;6.892;2023-05-28T08:07:20;757.65;;;681.20;;
52888;SDS011;41413;52.770;6.892;2023-05-28T08:09:47;688.95;;;619.67;;
52888;SDS011;41413;52.770;6.892;2023-05-28T08:12:14;672.60;;;606.83;;
52888;SDS011;41413;52.770;6.892;2023-05-28T08:14:41;661.10;;;594.92;;
52888;SDS011;41413;52.770;6.892;2023-05-28T08:17:07;733.85;;;658.80;;
52888;SDS011;41413;52.770;6.892;2023-05-28T08:19:34;595.92;;;537.10;;
52888;SDS011;41413;52.770;6.892;2023-05-28T08:22:01;648.17;;;583.60;;
52888;SDS011;41413;52.770;6.892;2023-05-28T08:24:29;729.47;;;655.55;;
52888;SDS011;41413;52.770;6.892;2023-05-28T08:26:56;723.70;;;651.55;;
52888;SDS011;41413;52.770;6.892;2023-05-28T08:29:23;646.78;;;584.00;;
52888;SDS011;41413;52.770;6.892;2023-05-28T08:31:49;632.90;;;572.00;;
52888;SDS011;41413;52.770;6.892;2023-05-28T08:34:17;618.92;;;562.15;;
52888;SDS011;41413;52.770;6.892;2023-05-28T08:36:44;551.15;;;502.80;;
52888;SDS011;41413;52.770;6.892;2023-05-28T08:39:11;477.90;;;436.88;;
52888;SDS011;41413;52.770;6.892;2023-05-28T08:41:38;387.45;;;358.75;;
52888;SDS011;41413;52.770;6.892;2023-05-28T08:44:05;122.35;;;114.50;;
52888;SDS011;41413;52.770;6.892;2023-05-28T08:46:32;7.00;;;6.07;;
52888;SDS011;41413;52.770;6.892;2023-05-28T08:49:00;10.27;;;5.75;;
52888;SDS011;41413;52.770;6.892;2023-05-28T08:51:28;14.10;;;6.75;;
52888;SDS011;41413;52.770;6.892;2023-05-28T08:53:59;12.13;;;7.03;;
52888;SDS011;41413;52.770;6.892;2023-05-28T08:56:27;9.23;;;6.65;;
52888;SDS011;41413;52.770;6.892;2023-05-28T08:58:54;13.25;;;7.78;;
52888;SDS011;41413;52.770;6.892;2023-05-28T09:01:21;12.98;;;7.03;;
52888;SDS011;41413;52.770;6.892;2023-05-28T09:03:48;7.60;;;6.68;;
52888;SDS011;41413;52.770;6.892;2023-05-28T09:06:15;9.65;;;7.05;;
52888;SDS011;41413;52.770;6.892;2023-05-28T09:08:45;9.50;;;7.55;;
52888;SDS011;41413;52.770;6.892;2023-05-28T09:11:13;9.90;;;7.28;;
52888;SDS011;41413;52.770;6.892;2023-05-28T09:13:44;9.73;;;7.25;;
52888;SDS011;41413;52.770;6.892;2023-05-28T09:16:18;10.95;;;6.93;;
52888;SDS011;41413;52.770;6.892;2023-05-28T09:18:49;12.20;;;7.38;;
52888;SDS011;41413;52.770;6.892;2023-05-28T09:21:28;8.98;;;6.65;;
52888;SDS011;41413;52.770;6.892;2023-05-28T09:23:56;11.48;;;7.80;;
52888;SDS011;41413;52.770;6.892;2023-05-28T09:26:22;14.20;;;7.88;;
52888;SDS011;41413;52.770;6.892;2023-05-28T09:28:50;10.23;;;7.25;;
52888;SDS011;41413;52.770;6.892;2023-05-28T09:31:18;9.88;;;6.68;;
52888;SDS011;41413;52.770;6.892;2023-05-28T09:33:45;10.25;;;7.15;;
52888;SDS011;41413;52.770;6.892;2023-05-28T09:36:17;13.88;;;7.13;;
52888;SDS011;41413;52.770;6.892;2023-05-28T09:38:44;9.73;;;6.68;;
52888;SDS011;41413;52.770;6.892;2023-05-28T09:41:21;10.10;;;6.53;;
52888;SDS011;41413;52.770;6.892;2023-05-28T09:43:56;9.18;;;7.95;;
52888;SDS011;41413;52.770;6.892;2023-05-28T09:46:29;11.55;;;8.18;;
52888;SDS011;41413;52.770;6.892;2023-05-28T09:48:57;11.15;;;7.35;;
52888;SDS011;41413;52.770;6.892;2023-05-28T09:51:26;12.55;;;7.20;;
52888;SDS011;41413;52.770;6.892;2023-05-28T09:53:56;12.88;;;7.93;;
52888;SDS011;41413;52.770;6.892;2023-05-28T09:56:29;9.50;;;7.38;;
52888;SDS011;41413;52.770;6.892;2023-05-28T09:59:01;8.98;;;6.45;;
52888;SDS011;41413;52.770;6.892;2023-05-28T10:01:38;10.82;;;6.80;;
52888;SDS011;41413;52.770;6.892;2023-05-28T10:04:17;9.73;;;7.45;;
52888;SDS011;41413;52.770;6.892;2023-05-28T10:06:46;9.50;;;6.90;;
52888;SDS011;41413;52.770;6.892;2023-05-28T10:09:14;11.90;;;7.75;;
52888;SDS011;41413;52.770;6.892;2023-05-28T10:11:48;9.68;;;6.85;;
52888;SDS011;41413;52.770;6.892;2023-05-28T10:14:22;10.07;;;7.43;;
52888;SDS011;41413;52.770;6.892;2023-05-28T10:16:49;7.45;;;6.22;;
52888;SDS011;41413;52.770;6.892;2023-05-28T10:19:17;8.98;;;7.10;;
52888;SDS011;41413;52.770;6.892;2023-05-28T10:21:44;8.10;;;6.47;;
52888;SDS011;41413;52.770;6.892;2023-05-28T10:24:11;7.72;;;6.88;;
52888;SDS011;41413;52.770;6.892;2023-05-28T10:26:39;10.68;;;7.63;;
52888;SDS011;41413;52.770;6.892;2023-05-28T10:29:06;9.38;;;7.75;;
52888;SDS011;41413;52.770;6.892;2023-05-28T10:31:36;10.38;;;7.20;;
52888;SDS011;41413;52.770;6.892;2023-05-28T10:34:09;8.65;;;6.95;;
52888;SDS011;41413;52.770;6.892;2023-05-28T10:36:49;10.95;;;7.00;;
52888;SDS011;41413;52.770;6.892;2023-05-28T10:39:42;8.75;;;7.25;;
52888;SDS011;41413;52.770;6.892;2023-05-28T10:42:15;9.30;;;7.10;;
52888;SDS011;41413;52.770;6.892;2023-05-28T10:47:31;11.82;;;7.38;;
52888;SDS011;41413;52.770;6.892;2023-05-28T10:55:50;9.77;;;7.03;;
52888;SDS011;41413;52.770;6.892;2023-05-28T11:00:59;9.38;;;6.85;;
52888;SDS011;41413;52.770;6.892;2023-05-28T11:03:37;11.38;;;6.47;;
52888;SDS011;41413;52.770;6.892;2023-05-28T11:06:07;9.02;;;6.15;;
52888;SDS011;41413;52.770;6.892;2023-05-28T11:08:41;8.82;;;6.40;;
52888;SDS011;41413;52.770;6.892;2023-05-28T11:11:13;8.75;;;6.10;;
52888;SDS011;41413;52.770;6.892;2023-05-28T11:13:43;10.77;;;6.47;;
52888;SDS011;41413;52.770;6.892;2023-05-28T11:16:15;8.93;;;6.28;;
52888;SDS011;41413;52.770;6.892;2023-05-28T11:19:03;10.80;;;5.97;;
52888;SDS011;41413;52.770;6.892;2023-05-28T11:21:31;7.22;;;6.53;;
52888;SDS011;41413;52.770;6.892;2023-05-28T11:24:00;8.35;;;5.88;;
52888;SDS011;41413;52.770;6.892;2023-05-28T11:26:28;10.88;;;6.03;;
52888;SDS011;41413;52.770;6.892;2023-05-28T11:28:55;8.35;;;6.70;;
52888;SDS011;41413;52.770;6.892;2023-05-28T11:31:21;7.25;;;6.53;;
52888;SDS011;41413;52.770;6.892;2023-05-28T11:33:49;7.50;;;6.70;;
52888;SDS011;41413;52.770;6.892;2023-05-28T11:36:17;9.68;;;6.65;;
52888;SDS011;41413;52.770;6.892;2023-05-28T11:38:44;11.82;;;6.82;;
52888;SDS011;41413;52.770;6.892;2023-05-28T11:41:12;8.52;;;5.80;;
52888;SDS011;41413;52.770;6.892;2023-05-28T11:43:39;10.77;;;7.13;;
52888;SDS011;41413;52.770;6.892;2023-05-28T11:46:05;9.02;;;6.80;;
52888;SDS011;41413;52.770;6.892;2023-05-28T11:48:35;8.27;;;5.57;;
52888;SDS011;41413;52.770;6.892;2023-05-28T11:51:03;11.10;;;6.72;;
52888;SDS011;41413;52.770;6.892;2023-05-28T11:53:38;8.98;;;6.38;;
52888;SDS011;41413;52.770;6.892;2023-05-28T11:56:08;7.85;;;6.38;;
52888;SDS011;41413;52.770;6.892;2023-05-28T11:58:37;9.98;;;6.22;;
52888;SDS011;41413;52.770;6.892;2023-05-28T12:01:06;8.85;;;5.72;;
52888;SDS011;41413;52.770;6.892;2023-05-28T12:03:33;8.38;;;6.68;;
52888;SDS011;41413;52.770;6.892;2023-05-28T12:06:01;9.93;;;6.63;;
52888;SDS011;41413;52.770;6.892;2023-05-28T12:08:28;9.00;;;5.95;;
52888;SDS011;41413;52.770;6.892;2023-05-28T12:10:59;8.98;;;6.60;;
52888;SDS011;41413;52.770;6.892;2023-05-28T12:13:30;6.53;;;5.05;;
52888;SDS011;41413;52.770;6.892;2023-05-28T12:16:05;7.55;;;4.75;;
52888;SDS011;41413;52.770;6.892;2023-05-28T12:18:39;6.60;;;5.25;;
52888;SDS011;41413;52.770;6.892;2023-05-28T12:21:11;7.75;;;5.53;;
52888;SDS011;41413;52.770;6.892;2023-05-28T12:23:38;7.53;;;5.53;;
52888;SDS011;41413;52.770;6.892;2023-05-28T12:26:11;6.95;;;5.53;;
52888;SDS011;41413;52.770;6.892;2023-05-28T12:28:39;5.95;;;5.40;;
52888;SDS011;41413;52.770;6.892;2023-05-28T12:31:07;5.18;;;4.72;;
52888;SDS011;41413;52.770;6.892;2023-05-28T12:33:34;7.00;;;4.57;;
52888;SDS011;41413;52.770;6.892;2023-05-28T12:36:01;5.93;;;5.28;;
52888;SDS011;41413;52.770;6.892;2023-05-28T12:38:28;5.75;;;5.15;;
52888;SDS011;41413;52.770;6.892;2023-05-28T12:40:55;6.68;;;4.55;;
52888;SDS011;41413;52.770;6.892;2023-05-28T12:43:22;5.18;;;4.82;;
52888;SDS011;41413;52.770;6.892;2023-05-28T12:45:49;5.88;;;5.28;;
52888;SDS011;41413;52.770;6.892;2023-05-28T12:48:16;7.25;;;6.45;;
52888;SDS011;41413;52.770;6.892;2023-05-28T12:50:43;8.57;;;5.88;;
52888;SDS011;41413;52.770;6.892;2023-05-28T12:53:09;6.40;;;5.72;;
52888;SDS011;41413;52.770;6.892;2023-05-28T12:55:36;5.45;;;4.95;;
52888;SDS011;41413;52.770;6.892;2023-05-28T12:58:03;6.15;;;5.65;;
52888;SDS011;41413;52.770;6.892;2023-05-28T13:00:30;6.65;;;5.90;;
52888;SDS011;41413;52.770;6.892;2023-05-28T13:02:57;7.03;;;6.43;;
52888;SDS011;41413;52.770;6.892;2023-05-28T13:05:24;7.75;;;5.00;;
52888;SDS011;41413;52.770;6.892;2023-05-28T13:07:51;6.88;;;6.18;;
52888;SDS011;41413;52.770;6.892;2023-05-28T13:10:17;7.28;;;6.00;;
52888;SDS011;41413;52.770;6.892;2023-05-28T13:12:44;6.38;;;5.78;;
52888;SDS011;41413;52.770;6.892;2023-05-28T13:15:11;5.93;;;5.35;;
52888;SDS011;41413;52.770;6.892;2023-05-28T13:17:38;6.68;;;5.65;;
52888;SDS011;41413;52.770;6.892;2023-05-28T13:20:05;6.70;;;5.97;;
52888;SDS011;41413;52.770;6.892;2023-05-28T13:22:36;5.78;;;4.95;;
52888;SDS011;41413;52.770;6.892;2023-05-28T13:25:04;6.35;;;5.78;;
52888;SDS011;41413;52.770;6.892;2023-05-28T13:27:31;5.80;;;5.13;;
52888;SDS011;41413;52.770;6.892;2023-05-28T13:29:58;6.45;;;5.85;;
52888;SDS011;41413;52.770;6.892;2023-05-28T13:32:25;6.00;;;5.40;;
52888;SDS011;41413;52.770;6.892;2023-05-28T13:34:52;6.95;;;4.78;;
52888;SDS011;41413;52.770;6.892;2023-05-28T13:37:19;5.95;;;4.70;;
52888;SDS011;41413;52.770;6.892;2023-05-28T13:39:46;6.53;;;5.82;;
52888;SDS011;41413;52.770;6.892;2023-05-28T13:42:13;7.82;;;5.75;;
52888;SDS011;41413;52.770;6.892;2023-05-28T13:44:44;5.25;;;4.75;;
52888;SDS011;41413;52.770;6.892;2023-05-28T13:47:12;6.35;;;5.07;;
52888;SDS011;41413;52.770;6.892;2023-05-28T13:49:39;5.47;;;4.43;;
52888;SDS011;41413;52.770;6.892;2023-05-28T13:52:06;4.88;;;4.03;;
52888;SDS011;41413;52.770;6.892;2023-05-28T13:54:33;4.72;;;4.30;;
52888;SDS011;41413;52.770;6.892;2023-05-28T13:57:01;4.65;;;4.25;;
52888;SDS011;41413;52.770;6.892;2023-05-28T13:59:28;6.95;;;4.55;;
52888;SDS011;41413;52.770;6.892;2023-05-28T14:01:55;5.72;;;5.22;;
52888;SDS011;41413;52.770;6.892;2023-05-28T14:04:21;5.40;;;4.90;;
52888;SDS011;41413;52.770;6.892;2023-05-28T14:06:48;9.77;;;5.13;;
52888;SDS011;41413;52.770;6.892;2023-05-28T14:09:15;4.40;;;3.80;;
52888;SDS011;41413;52.770;6.892;2023-05-28T14:11:42;5.05;;;4.55;;
52888;SDS011;41413;52.770;6.892;2023-05-28T14:14:29;5.80;;;4.32;;
52888;SDS011;41413;52.770;6.892;2023-05-28T14:16:55;4.80;;;4.35;;
52888;SDS011;41413;52.770;6.892;2023-05-28T14:19:22;3.90;;;3.60;;
52888;SDS011;41413;52.770;6.892;2023-05-28T14:21:49;6.78;;;4.28;;
52888;SDS011;41413;52.770;6.892;2023-05-28T14:24:16;5.95;;;3.85;;
52888;SDS011;41413;52.770;6.892;2023-05-28T14:26:42;4.93;;;4.50;;
52888;SDS011;41413;52.770;6.892;2023-05-28T14:29:09;5.10;;;4.60;;